Time;durP1;ratioP1;P1;durP2;ratioP2;P2;SDS_P1;SDS_P2;PMS_P1;PMS_P2;Temp;Humidity;BMP_temperature;BMP_pressure;BME280_temperature;BME280_humidity;BME280_pressure;Samples;Min_cycle;Max_cycle;Signal;HPM_P1;HPM_P2
2022/06/22 00:02:06;;;;;;;8.43;5.00;;;;;;;16.82;76.52;97884.06;5012116;28;20164;-50
2022/06/22 00:04:37;;;;;;;8.85;4.45;;;;;;;16.76;75.31;97877.56;5018935;28;20440;-48
2022/06/22 00:07:15;;;;;;;7.50;4.13;;;;;;;16.72;74.51;97877.97;5016085;28;20041;-50
2022/06/22 00:09:42;;;;;;;6.47;3.67;;;;;;;16.73;74.63;97877.84;5029659;28;20037;-53
2022/06/22 00:12:21;;;;;;;6.22;4.00;;;;;;;16.71;73.90;97879.75;5029004;28;20033;-53
2022/06/22 00:14:49;;;;;;;8.80;4.97;;;;;;;16.67;73.86;97877.53;5028021;28;20033;-47
2022/06/22 00:17:39;;;;;;;8.20;3.40;;;;;;;16.68;73.54;97884.44;5010134;28;20048;-47
2022/06/22 00:20:11;;;;;;;5.28;3.40;;;;;;;16.65;73.48;97882.91;5028328;28;20084;-49
2022/06/22 00:22:55;;;;;;;6.20;3.33;;;;;;;16.57;73.12;97877.50;4996828;28;20128;-48
2022/06/22 00:25:30;;;;;;;6.13;3.53;;;;;;;16.62;73.39;97891.06;5062299;28;20138;-48
2022/06/22 00:28:24;;;;;;;7.63;3.58;;;;;;;16.59;74.10;97893.94;5030116;28;20037;-53
2022/06/22 00:31:20;;;;;;;5.45;3.83;;;;;;;16.39;74.63;97869.41;5029962;28;20045;-49
2022/06/22 00:34:09;;;;;;;6.55;3.80;;;;;;;16.52;75.05;97893.63;5018637;28;20043;-50
2022/06/22 00:36:38;;;;;;;4.80;3.25;;;;;;;16.48;75.48;97897.50;5030200;28;20067;-46
2022/06/22 00:39:24;;;;;;;5.35;3.80;;;;;;;16.46;75.59;97888.91;5027301;28;20060;-50
2022/06/22 00:42:00;;;;;;;5.68;3.13;;;;;;;16.42;76.00;97892.78;5046129;28;20045;-48
2022/06/22 00:44:29;;;;;;;7.05;3.53;;;;;;;16.41;76.07;97890.28;5030051;28;20048;-49
2022/06/22 00:47:07;;;;;;;5.45;3.67;;;;;;;16.39;76.40;97900.88;5030062;28;20045;-49
2022/06/22 00:49:34;;;;;;;4.88;3.40;;;;;;;16.31;76.28;97894.66;5029548;28;20052;-48
2022/06/22 00:52:06;;;;;;;8.30;3.80;;;;;;;16.36;76.26;97895.91;5029860;28;20139;-48
2022/06/22 00:54:32;;;;;;;6.40;3.70;;;;;;;16.34;76.75;97908.31;5060888;28;20095;-47
2022/06/22 00:57:02;;;;;;;7.32;3.60;;;;;;;16.20;76.49;97879.00;5009080;28;20213;-48
2022/06/22 00:59:48;;;;;;;5.53;3.70;;;;;;;16.33;76.36;97909.28;5024793;28;20048;-48
2022/06/22 01:02:43;;;;;;;4.40;3.50;;;;;;;16.30;76.48;97906.94;5019507;28;20045;-48
2022/06/22 01:05:35;;;;;;;7.47;4.03;;;;;;;16.29;76.29;97902.66;5032618;28;20486;-49
2022/06/22 01:08:22;;;;;;;6.60;3.65;;;;;;;16.27;76.38;97901.13;5023287;28;20061;-50
2022/06/22 01:12:16;;;;;;;7.95;4.10;;;;;;;16.25;76.52;97903.88;5025717;28;20083;-50
2022/06/22 01:14:03;;;;;;;5.40;3.78;;;;;;;16.25;76.31;97903.88;5009286;28;20050;-48
2022/06/22 01:16:34;;;;;;;5.10;3.95;;;;;;;16.24;76.64;97899.59;5027770;28;20030;-48
2022/06/22 01:19:06;;;;;;;7.07;4.15;;;;;;;16.21;76.61;97907.72;5025457;28;20064;-48
2022/06/22 01:21:39;;;;;;;5.20;4.20;;;;;;;16.23;76.37;97920.69;5050478;28;20033;-51
2022/06/22 01:24:24;;;;;;;6.82;4.30;;;;;;;16.23;76.94;97920.69;5025622;28;20049;-50
2022/06/22 01:27:15;;;;;;;5.35;4.45;;;;;;;16.22;76.72;97922.50;5011320;28;20041;-48
2022/06/22 01:29:50;;;;;;;5.47;4.22;;;;;;;16.22;76.45;97925.13;5029664;28;20110;-49
2022/06/22 01:32:24;;;;;;;5.85;3.85;;;;;;;16.21;76.33;97923.47;5010505;28;20038;-51
2022/06/22 01:34:55;;;;;;;5.80;4.20;;;;;;;16.22;76.04;97927.75;5001424;28;20524;-51
2022/06/22 01:37:24;;;;;;;7.15;4.18;;;;;;;16.23;75.48;97934.63;5016242;28;20486;-49
2022/06/22 01:39:51;;;;;;;5.68;4.05;;;;;;;16.25;75.54;97942.38;5023401;28;20053;-52
2022/06/22 01:42:23;;;;;;;6.22;4.55;;;;;;;16.25;75.72;97926.63;5027503;28;20533;-50
2022/06/22 01:44:57;;;;;;;4.72;4.13;;;;;;;16.19;75.71;97928.00;5010413;28;20045;-49
2022/06/22 01:47:46;;;;;;;7.40;4.28;;;;;;;16.23;75.43;97936.41;5026735;28;20056;-47
2022/06/22 01:50:18;;;;;;;7.43;4.40;;;;;;;16.23;75.15;97937.25;5015081;28;20098;-49
2022/06/22 01:53:02;;;;;;;7.05;4.07;;;;;;;16.24;75.39;97941.53;5029199;28;20042;-48
2022/06/22 01:55:49;;;;;;;7.40;4.63;;;;;;;16.24;74.99;97936.28;5019912;28;20136;-49
2022/06/22 01:58:15;;;;;;;7.57;4.40;;;;;;;16.24;74.98;97938.09;5018922;28;20041;-51
2022/06/22 02:00:46;;;;;;;6.53;4.25;;;;;;;16.24;74.52;97931.06;5028546;28;20410;-50
2022/06/22 02:03:35;;;;;;;8.88;5.07;;;;;;;16.25;74.08;97935.34;5007136;28;20048;-50
2022/06/22 02:09:09;;;;;;;5.53;4.18;;;;;;;16.26;74.07;97931.75;5024304;28;20540;-49
2022/06/22 02:11:41;;;;;;;6.65;4.28;;;;;;;16.28;73.75;97931.63;5016283;28;20136;-52
2022/06/22 02:14:14;;;;;;;7.25;4.13;;;;;;;16.22;73.50;97917.25;5012036;28;20141;-49
2022/06/22 02:16:56;;;;;;;8.05;4.63;;;;;;;16.32;72.85;97933.03;5022217;28;20045;-50
2022/06/22 02:19:22;;;;;;;5.18;4.35;;;;;;;16.34;72.74;97931.09;5031595;28;20533;-52
2022/06/22 02:21:57;;;;;;;6.28;4.30;;;;;;;16.36;72.52;97931.81;5019063;28;20100;-52
2022/06/22 02:24:28;;;;;;;6.35;4.35;;;;;;;16.41;72.74;97932.25;5028271;28;20047;-50
2022/06/22 02:26:55;;;;;;;5.10;4.13;;;;;;;16.41;73.11;97943.56;5027266;28;20051;-45
2022/06/22 02:29:24;;;;;;;6.45;3.95;;;;;;;16.44;72.99;97943.28;5058592;28;20041;-53
2022/06/22 02:31:51;;;;;;;9.52;5.57;;;;;;;16.45;72.70;97944.97;5015738;28;20141;-49
2022/06/22 02:34:17;;;;;;;7.13;4.43;;;;;;;16.46;73.01;97951.03;5014034;28;20540;-47
2022/06/22 02:36:46;;;;;;;7.97;4.03;;;;;;;16.39;73.35;97935.00;5021116;28;20414;-47
2022/06/22 02:39:13;;;;;;;5.03;3.95;;;;;;;16.49;72.98;97954.22;5030856;28;20517;-47
2022/06/22 02:44:29;;;;;;;5.55;4.60;;;;;;;16.51;72.66;97947.06;5028721;28;20046;-48
2022/06/22 02:46:57;;;;;;;6.00;4.20;;;;;;;16.47;72.55;97945.66;5030724;28;20041;-49
2022/06/22 02:49:28;;;;;;;9.48;4.40;;;;;;;16.57;72.22;97953.56;5029070;28;20452;-48
2022/06/22 02:51:54;;;;;;;9.32;4.38;;;;;;;16.62;72.28;97954.03;5017363;28;20137;-48
2022/06/22 02:54:40;;;;;;;6.55;4.13;;;;;;;16.66;71.83;97949.34;5019309;28;20045;-48
2022/06/22 02:57:06;;;;;;;6.78;4.20;;;;;;;16.72;71.68;97957.53;5025913;28;20432;-51
2022/06/22 02:59:32;;;;;;;5.32;3.90;;;;;;;16.74;71.07;97952.16;5020611;28;20033;-49
2022/06/22 03:01:58;;;;;;;7.35;3.67;;;;;;;16.76;70.75;97951.03;5015290;28;20054;-53
2022/06/22 03:04:24;;;;;;;5.40;4.05;;;;;;;16.75;71.00;97954.63;5024922;28;20042;-52
2022/06/22 03:06:52;;;;;;;5.93;3.85;;;;;;;16.74;70.82;97952.97;5018391;28;20075;-49
2022/06/22 03:09:18;;;;;;;7.05;4.28;;;;;;;16.72;71.07;97944.41;5020129;28;20045;-50
2022/06/22 03:11:48;;;;;;;6.95;4.68;;;;;;;16.72;71.09;97957.53;5018274;28;20069;-51
2022/06/22 03:14:35;;;;;;;5.70;4.00;;;;;;;16.75;71.03;97952.00;5028369;28;20128;-55
2022/06/22 03:17:10;;;;;;;7.60;4.47;;;;;;;16.80;71.03;97957.66;5030693;28;20132;-51
2022/06/22 03:19:45;;;;;;;9.55;4.40;;;;;;;16.84;71.27;97959.09;5028360;28;20056;-49
2022/06/22 03:22:16;;;;;;;7.63;4.43;;;;;;;16.89;71.28;97963.94;5027352;28;20124;-54
2022/06/22 03:24:51;;;;;;;5.50;3.88;;;;;;;16.93;71.32;97971.41;5031499;28;20064;-47
2022/06/22 03:27:29;;;;;;;7.38;4.63;;;;;;;16.97;71.42;97964.06;5051400;28;20038;-48
2022/06/22 03:29:59;;;;;;;6.67;4.00;;;;;;;16.98;71.57;97962.28;5029148;28;20052;-50
2022/06/22 03:32:47;;;;;;;5.32;4.15;;;;;;;17.03;71.50;97971.41;5030418;28;20099;-50
2022/06/22 03:35:24;;;;;;;5.93;3.53;;;;;;;17.07;71.15;97975.44;5025907;28;20048;-51
2022/06/22 03:37:55;;;;;;;5.05;3.60;;;;;;;17.11;70.28;97981.25;5028796;28;20165;-48
2022/06/22 03:40:40;;;;;;;5.38;3.90;;;;;;;17.07;70.15;97972.81;5029908;28;20041;-49
2022/06/22 03:43:14;;;;;;;5.00;3.47;;;;;;;17.18;69.64;97982.38;5019060;28;20156;-52
2022/06/22 03:45:45;;;;;;;8.63;3.95;;;;;;;17.20;69.31;97983.91;5027394;28;20133;-49
2022/06/22 03:48:32;;;;;;;7.88;4.20;;;;;;;17.18;68.94;97996.31;5010365;28;20656;-48
2022/06/22 03:51:37;;;;;;;7.53;3.58;;;;;;;17.15;68.92;97982.66;5028448;28;20041;-50
2022/06/22 03:54:12;;;;;;;6.18;3.70;;;;;;;17.17;68.77;97993.81;5016586;28;20045;-49
2022/06/22 03:56:45;;;;;;;7.15;3.90;;;;;;;17.16;69.19;98000.06;5012320;28;20041;-49
2022/06/22 03:59:11;;;;;;;9.88;3.30;;;;;;;17.16;69.22;98005.31;5026672;28;20043;-53
2022/06/22 04:01:36;;;;;;;5.90;3.20;;;;;;;17.18;69.43;98006.00;5011113;28;20057;-50
2022/06/22 04:04:03;;;;;;;5.45;3.47;;;;;;;17.12;70.03;97991.59;5026159;28;20179;-49
2022/06/22 04:06:57;;;;;;;5.28;4.05;;;;;;;17.24;69.87;98008.09;5024158;28;20083;-50
2022/06/22 04:09:24;;;;;;;6.35;3.67;;;;;;;17.28;69.83;98004.22;5020357;28;20056;-49
2022/06/22 04:11:55;;;;;;;4.88;3.63;;;;;;;17.33;69.15;98002.00;5047404;28;20041;-50
2022/06/22 04:14:41;;;;;;;6.68;4.00;;;;;;;17.38;68.64;98005.91;5009738;28;20060;-51
2022/06/22 04:17:19;;;;;;;8.20;3.80;;;;;;;17.43;68.85;98007.31;5011507;28;20072;-50
2022/06/22 04:19:51;;;;;;;7.13;3.20;;;;;;;17.47;69.08;98008.69;5022353;28;20514;-50
2022/06/22 04:22:22;;;;;;;6.47;3.00;;;;;;;17.48;68.63;98011.16;5014252;28;20136;-50
2022/06/22 04:24:51;;;;;;;4.38;3.20;;;;;;;17.52;68.14;98007.31;5012782;28;20045;-48
2022/06/22 04:27:23;;;;;;;5.95;3.40;;;;;;;17.60;67.92;98014.53;5022138;28;20072;-52
2022/06/22 04:30:06;;;;;;;4.32;3.55;;;;;;;17.68;67.60;98015.53;5029103;28;20037;-51
2022/06/22 04:32:58;;;;;;;5.47;3.17;;;;;;;17.76;66.95;98017.44;5029788;28;20094;-50
2022/06/22 04:35:36;;;;;;;6.15;3.67;;;;;;;17.83;66.70;98021.19;5026502;28;20069;-50
2022/06/22 04:38:11;;;;;;;8.87;5.73;;;;;;;17.88;66.62;98023.41;5015527;28;20075;-53
2022/06/22 04:40:36;;;;;;;5.05;3.25;;;;;;;17.94;66.13;98028.94;5055513;28;20072;-49
2022/06/22 04:43:04;;;;;;;5.68;3.13;;;;;;;18.00;66.23;98028.38;5011635;28;20033;-49
2022/06/22 04:45:38;;;;;;;3.38;2.67;;;;;;;18.05;65.82;98031.44;5015387;28;20455;-48
2022/06/22 04:48:27;;;;;;;5.35;3.40;;;;;;;18.13;65.71;98028.91;5027231;28;20077;-47
2022/06/22 04:50:58;;;;;;;5.13;3.07;;;;;;;18.20;65.39;98027.41;5022386;28;20136;-50
2022/06/22 04:53:32;;;;;;;5.60;2.90;;;;;;;18.29;64.89;98036.22;5061518;28;20294;-48
2022/06/22 04:56:03;;;;;;;4.15;3.00;;;;;;;18.35;64.64;98034.84;5028698;28;20037;-47
2022/06/22 04:58:41;;;;;;;3.67;2.97;;;;;;;18.49;64.22;98044.91;5061574;28;20627;-51
2022/06/22 05:01:13;;;;;;;4.35;3.30;;;;;;;18.61;64.10;98035.91;5018609;28;20064;-50
2022/06/22 05:03:39;;;;;;;5.88;3.10;;;;;;;18.78;63.74;98043.06;5017861;28;20038;-51
2022/06/22 05:06:12;;;;;;;6.13;2.80;;;;;;;18.92;63.02;98045.22;5024742;28;20099;-48
2022/06/22 05:08:42;;;;;;;3.58;2.80;;;;;;;18.99;62.47;98043.69;5025202;28;20406;-50
2022/06/22 05:11:19;;;;;;;8.80;3.30;;;;;;;19.05;62.11;98048.34;5040396;28;20045;-53
2022/06/22 05:13:47;;;;;;;4.97;2.75;;;;;;;19.13;62.01;98049.44;5018340;28;20041;-50
2022/06/22 05:16:16;;;;;;;6.43;3.25;;;;;;;19.14;62.02;98056.38;5024610;28;20128;-48
2022/06/22 05:18:42;;;;;;;6.30;2.90;;;;;;;19.12;61.95;98053.03;5025451;28;20076;-50
2022/06/22 05:21:17;;;;;;;5.97;3.10;;;;;;;19.11;62.55;98054.00;5043611;28;20509;-50
2022/06/22 05:23:46;;;;;;;9.02;3.13;;;;;;;19.15;62.44;98050.97;5012061;28;20045;-48
2022/06/22 05:26:12;;;;;;;5.75;3.20;;;;;;;19.22;62.08;98051.19;5029250;28;20049;-47
2022/06/22 05:28:44;;;;;;;8.10;3.55;;;;;;;19.26;61.64;98042.03;5028538;28;20421;-49
2022/06/22 05:31:28;;;;;;;4.85;3.00;;;;;;;19.46;61.19;98051.50;5016660;28;20052;-53
2022/06/22 05:33:59;;;;;;;7.25;3.35;;;;;;;19.65;60.45;98045.28;5028849;28;20173;-51
2022/06/22 05:36:26;;;;;;;7.53;3.15;;;;;;;19.83;60.27;98051.41;5040278;28;20042;-49
2022/06/22 05:38:54;;;;;;;6.40;3.30;;;;;;;20.06;59.86;98049.09;5027184;28;20037;-49
2022/06/22 05:41:29;;;;;;;7.78;3.08;;;;;;;20.21;59.20;98048.41;5031808;28;20127;-45
2022/06/22 05:43:57;;;;;;;5.57;3.38;;;;;;;20.28;58.74;98057.38;5061153;28;20041;-49
2022/06/22 05:46:23;;;;;;;4.63;3.27;;;;;;;20.34;58.61;98044.59;4994797;28;20372;-49
2022/06/22 05:48:50;;;;;;;6.10;3.33;;;;;;;20.36;58.10;98045.28;5027762;28;20049;-47
2022/06/22 05:51:34;;;;;;;7.88;3.17;;;;;;;20.50;58.03;98056.09;5024466;28;20077;-52
2022/06/22 05:54:09;;;;;;;9.38;3.45;;;;;;;20.52;57.45;98040.09;5028141;28;20120;-43
2022/06/22 05:56:43;;;;;;;5.65;3.17;;;;;;;20.78;56.92;98056.75;5034626;28;20046;-49
2022/06/22 05:59:33;;;;;;;6.57;3.10;;;;;;;20.85;56.28;98051.69;5025504;28;20069;-47
2022/06/22 06:02:06;;;;;;;6.63;3.75;;;;;;;20.92;56.03;98058.00;5027952;28;20053;-48
2022/06/22 06:04:32;;;;;;;8.02;3.70;;;;;;;20.94;56.19;98070.06;5029634;28;20132;-47
2022/06/22 06:07:02;;;;;;;4.30;3.03;;;;;;;20.88;56.45;98072.50;5028945;28;20718;-48
2022/06/22 06:09:28;;;;;;;6.43;2.90;;;;;;;20.91;56.52;98078.31;5021319;28;20046;-52
2022/06/22 06:12:11;;;;;;;8.50;3.95;;;;;;;20.98;56.12;98078.50;5041752;28;21008;-52
2022/06/22 06:14:45;;;;;;;6.50;3.63;;;;;;;21.28;55.97;98085.13;5000785;28;20195;-48
2022/06/22 06:17:24;;;;;;;6.13;3.50;;;;;;;21.47;55.69;98092.78;5027595;28;20037;-50
2022/06/22 06:19:50;;;;;;;;;;;;;;;21.71;54.76;98090.25;5029293;28;20045;-49
2022/06/22 06:22:16;;;;;;;10.48;3.65;;;;;;;21.97;53.37;98079.56;5058064;28;19916;-49
2022/06/22 06:27:56;;;;;;;6.03;3.33;;;;;;;23.02;50.57;98091.94;5006904;28;20041;-47
2022/06/22 06:30:35;;;;;;;5.90;4.07;;;;;;;23.34;49.23;98098.97;5012693;28;20048;-46
2022/06/22 06:33:11;;;;;;;4.38;3.10;;;;;;;23.50;48.23;98096.28;5064271;28;20092;-49
2022/06/22 06:35:37;;;;;;;5.97;3.10;;;;;;;23.60;48.69;98089.72;5064998;28;20037;-48
2022/06/22 06:38:30;;;;;;;4.80;3.25;;;;;;;23.58;48.65;98096.22;5030805;28;20424;-48
2022/06/22 06:41:04;;;;;;;6.70;3.28;;;;;;;23.59;48.34;98097.88;5031309;28;20042;-47
2022/06/22 06:43:49;;;;;;;4.70;3.03;;;;;;;23.48;48.64;98099.09;5031296;28;20049;-52
2022/06/22 06:46:22;;;;;;;9.60;3.92;;;;;;;23.51;48.15;98096.09;5030384;28;20103;-46
2022/06/22 06:48:57;;;;;;;5.55;3.05;;;;;;;23.48;47.89;98090.31;5030666;28;20131;-47
2022/06/22 06:51:23;;;;;;;6.18;3.20;;;;;;;23.70;47.45;98099.31;5031007;28;20457;-54
2022/06/22 06:53:55;;;;;;;6.40;3.50;;;;;;;24.02;46.39;98109.75;5047898;28;20041;-48
2022/06/22 06:56:41;;;;;;;5.32;2.83;;;;;;;24.30;45.77;98102.09;5062579;28;20060;-46
2022/06/22 06:59:16;;;;;;;7.68;3.28;;;;;;;24.70;44.45;98107.09;5030808;28;20064;-49
2022/06/22 07:01:44;;;;;;;5.05;3.05;;;;;;;24.44;44.95;98096.84;5030833;28;20099;-47
2022/06/22 07:04:34;;;;;;;4.32;3.20;;;;;;;24.66;44.83;98110.28;5030900;28;20136;-47
2022/06/22 07:07:22;;;;;;;6.95;3.10;;;;;;;24.41;45.01;98109.66;5030224;28;20049;-50
2022/06/22 07:09:49;;;;;;;4.53;2.72;;;;;;;24.00;45.72;98112.59;5031997;28;20071;-48
2022/06/22 07:12:28;;;;;;;7.22;2.90;;;;;;;23.54;46.54;98114.34;5030937;28;20426;-50
2022/06/22 07:14:54;;;;;;;6.63;3.03;;;;;;;23.22;47.43;98111.75;5063701;28;20050;-46
2022/06/22 07:17:22;;;;;;;6.65;3.17;;;;;;;23.03;47.99;98114.81;5063193;28;20056;-50
2022/06/22 07:20:04;;;;;;;6.47;3.15;;;;;;;22.85;48.89;98116.81;5063706;28;20033;-47
2022/06/22 07:22:39;;;;;;;5.30;2.72;;;;;;;22.63;49.59;98118.31;5030188;28;20124;-47
2022/06/22 07:25:29;;;;;;;7.55;3.40;;;;;;;22.43;50.49;98128.41;5030361;28;20087;-46
2022/06/22 07:28:26;;;;;;;4.03;3.17;;;;;;;22.35;50.63;98125.75;5061692;28;20124;-44
2022/06/22 07:30:57;;;;;;;8.20;3.08;;;;;;;22.23;50.42;98132.38;5031299;28;20045;-48
2022/06/22 07:33:32;;;;;;;7.80;2.97;;;;;;;22.09;50.25;98140.94;5063648;28;20064;-48
2022/06/22 07:36:10;;;;;;;6.30;3.30;;;;;;;22.10;50.08;98132.84;5063384;28;20095;-48
2022/06/22 07:38:42;;;;;;;10.18;2.70;;;;;;;22.76;48.70;98132.75;5031864;28;20043;-50
2022/06/22 07:41:19;;;;;;;3.63;2.60;;;;;;;23.51;46.56;98133.22;5030644;28;20041;-50
2022/06/22 07:43:58;;;;;;;6.65;2.75;;;;;;;24.35;44.71;98139.59;5030151;28;20040;-46
2022/06/22 07:46:31;;;;;;;6.57;2.60;;;;;;;24.84;43.35;98127.56;5031151;28;20604;-47
2022/06/22 07:49:09;;;;;;;5.80;3.20;;;;;;;24.85;43.55;98128.38;5063249;28;20053;-47
2022/06/22 07:51:42;;;;;;;6.20;2.58;;;;;;;24.82;43.10;98136.69;5013499;28;20087;-47
2022/06/22 07:54:16;;;;;;;2.50;2.03;;;;;;;24.96;42.92;98137.78;5063459;28;20067;-50
2022/06/22 07:56:58;;;;;;;5.43;2.40;;;;;;;25.19;42.02;98136.69;5029760;28;20111;-50
2022/06/22 07:59:32;;;;;;;6.70;2.30;;;;;;;25.38;42.08;98139.84;5030072;28;20120;-48
2022/06/22 08:02:01;;;;;;;7.53;2.40;;;;;;;25.37;42.34;98146.16;5029400;28;20152;-51
2022/06/22 08:04:37;;;;;;;3.42;2.17;;;;;;;25.12;42.58;98146.41;5029846;28;20037;-48
2022/06/22 08:07:13;;;;;;;3.58;2.00;;;;;;;24.84;42.41;98148.00;5013103;28;20038;-48
2022/06/22 08:09:53;;;;;;;9.63;2.40;;;;;;;24.61;43.09;98157.81;5029809;28;20037;-46
2022/06/22 08:12:28;;;;;;;3.50;1.90;;;;;;;24.38;43.09;98158.69;5029754;28;20468;-47
2022/06/22 08:14:55;;;;;;;8.90;2.40;;;;;;;24.22;43.08;98153.47;5013148;28;20078;-50
2022/06/22 08:17:29;;;;;;;8.65;3.20;;;;;;;24.35;43.09;98161.66;5030440;28;20037;-48
2022/06/22 08:19:55;;;;;;;7.72;5.40;;;;;;;24.36;42.95;98159.84;5029531;28;20460;-46
2022/06/22 08:22:25;;;;;;;6.95;2.35;;;;;;;24.33;42.58;98155.72;5030515;28;20099;-46
2022/06/22 08:24:55;;;;;;;3.22;1.85;;;;;;;24.45;42.29;98148.97;5030334;28;20045;-48
2022/06/22 08:27:22;;;;;;;3.20;1.90;;;;;;;24.79;41.64;98151.19;5029245;28;20053;-49
2022/06/22 08:29:49;;;;;;;6.07;2.03;;;;;;;25.14;41.17;98154.22;5030699;28;20076;-51
2022/06/22 08:32:34;;;;;;;6.70;2.25;;;;;;;25.82;40.08;98145.94;5012797;28;20095;-53
2022/06/22 08:35:09;;;;;;;2.92;2.00;;;;;;;26.43;39.30;98157.91;5030404;28;20044;-48
2022/06/22 08:37:44;;;;;;;5.03;2.30;;;;;;;26.63;38.77;98160.78;5030415;28;20044;-46
2022/06/22 08:40:33;;;;;;;4.60;2.10;;;;;;;26.83;38.18;98167.13;5030694;28;20037;-48
2022/06/22 08:43:08;;;;;;;3.17;2.60;;;;;;;26.92;38.20;98173.16;5029503;28;20135;-46
2022/06/22 08:45:52;;;;;;;5.15;1.83;;;;;;;26.80;38.26;98169.31;5030449;28;20117;-51
2022/06/22 08:48:45;;;;;;;5.28;2.25;;;;;;;26.66;38.28;98167.56;5030235;28;20038;-48
2022/06/22 08:51:36;;;;;;;9.27;4.32;;;;;;;26.63;38.16;98170.63;5010493;28;20076;-45
2022/06/22 08:54:40;;;;;;;10.88;4.82;;;;;;;26.58;37.81;98176.53;5009803;28;20572;-47
2022/06/22 08:57:40;;;;;;;6.10;4.63;;;;;;;26.46;38.08;98176.22;5016933;28;20054;-47
2022/06/22 09:00:29;;;;;;;11.95;6.25;;;;;;;26.54;37.94;98180.56;5009232;28;20053;-46
2022/06/22 09:03:22;;;;;;;5.68;2.75;;;;;;;27.22;36.97;98173.78;5023332;28;20056;-48
2022/06/22 09:06:21;;;;;;;10.52;7.03;;;;;;;28.30;35.37;98190.00;5029545;28;20091;-49
2022/06/22 09:09:00;;;;;;;13.18;7.18;;;;;;;28.01;36.07;98183.06;5028421;28;20044;-47
2022/06/22 09:11:31;;;;;;;17.25;9.50;;;;;;;27.35;37.58;98184.56;5061899;28;20041;-46
2022/06/22 09:14:07;;;;;;;45.72;24.42;;;;;;;26.64;38.82;98177.63;5028676;28;20098;-52
2022/06/22 09:16:48;;;;;;;5.43;2.97;;;;;;;26.27;39.44;98182.16;5028070;28;20043;-49
2022/06/22 09:19:40;;;;;;;18.95;9.77;;;;;;;26.45;39.02;98171.88;5012151;28;20167;-47
2022/06/22 09:22:18;;;;;;;7.70;3.65;;;;;;;26.45;38.62;98163.06;5028558;28;20088;-47
2022/06/22 09:24:58;;;;;;;;;;;;;;;26.43;38.34;98173.91;5030271;28;20126;-46
2022/06/22 09:27:52;;;;;;;11.00;5.32;;;;;;;26.80;37.86;98183.47;5023824;28;19921;-46
2022/06/22 09:30:36;;;;;;;14.68;5.32;;;;;;;28.62;35.69;98178.53;5028338;28;20509;-48
2022/06/22 09:33:11;;;;;;;9.02;4.72;;;;;;;30.01;33.38;98179.22;5008487;28;20046;-51
2022/06/22 09:35:56;;;;;;;15.15;6.38;;;;;;;29.69;33.98;98191.66;5025024;28;20450;-55
2022/06/22 09:38:36;;;;;;;5.68;4.00;;;;;;;28.87;34.59;98184.13;5024551;28;20041;-46
2022/06/22 09:41:30;;;;;;;10.82;4.97;;;;;;;28.81;34.28;98186.81;5028658;28;20044;-51
2022/06/22 09:44:16;;;;;;;12.57;7.93;;;;;;;28.92;34.29;98192.38;5018370;28;20056;-46
2022/06/22 09:47:03;;;;;;;7.20;2.05;;;;;;;29.09;34.13;98194.63;5061842;28;20049;-46
2022/06/22 09:49:41;;;;;;;3.28;2.13;;;;;;;29.38;33.46;98189.69;5028562;28;20183;-49
2022/06/22 09:52:35;;;;;;;5.60;3.63;;;;;;;30.14;32.26;98186.38;5029538;28;20041;-51
2022/06/22 09:58:32;;;;;;;2.85;2.33;;;;;;;29.67;32.91;98200.97;5007513;28;20585;-47
2022/06/22 10:01:22;;;;;;;6.38;2.75;;;;;;;28.86;34.26;98198.53;5023653;28;20212;-46
2022/06/22 10:04:16;;;;;;;3.63;2.10;;;;;;;28.63;34.54;98196.22;5007686;28;20042;-48
2022/06/22 10:07:05;;;;;;;3.53;2.22;;;;;;;28.70;34.50;98196.22;5044065;28;20104;-46
2022/06/22 10:09:46;;;;;;;4.80;3.08;;;;;;;28.44;34.84;98202.34;5039355;28;20129;-47
2022/06/22 10:12:20;;;;;;;14.68;5.72;;;;;;;27.85;36.34;98199.44;5050372;28;20133;-47
2022/06/22 10:15:04;;;;;;;4.53;2.42;;;;;;;27.55;37.01;98195.38;5033548;28;20041;-50
2022/06/22 10:18:05;;;;;;;8.70;2.80;;;;;;;28.02;36.44;98208.78;5032137;28;20096;-50
2022/06/22 10:20:37;;;;;;;6.53;3.40;;;;;;;28.61;35.84;98210.81;5030989;28;20476;-49
2022/06/22 10:23:07;;;;;;;6.85;2.90;;;;;;;29.43;34.93;98211.31;5031377;28;20055;-53
2022/06/22 10:25:45;;;;;;;5.35;2.22;;;;;;;30.12;34.06;98224.13;5031676;28;20037;-49
2022/06/22 10:28:18;;;;;;;10.10;4.50;;;;;;;31.38;31.52;98226.84;5031836;28;20037;-52
2022/06/22 10:31:08;;;;;;;7.45;5.40;;;;;;;31.86;31.25;98218.94;5014564;28;20095;-49
2022/06/22 10:33:48;;;;;;;7.32;4.30;;;;;;;31.51;31.92;98229.38;5033013;28;20053;-48
2022/06/22 10:36:50;;;;;;;11.68;6.93;;;;;;;30.99;32.69;98227.94;5031050;28;20521;-52
2022/06/22 10:39:19;;;;;;;4.93;2.63;;;;;;;30.89;32.79;98222.25;5032341;28;20065;-48
2022/06/22 10:45:08;;;;;;;9.05;3.20;;;;;;;31.24;31.37;98228.84;5032438;28;20053;-49
2022/06/22 10:47:41;;;;;;;8.50;3.53;;;;;;;31.33;31.62;98238.25;5016057;28;20235;-50
2022/06/22 10:50:50;;;;;;;5.03;2.40;;;;;;;31.46;30.95;98245.34;5031469;28;20087;-47
2022/06/22 10:53:42;;;;;;;5.85;3.45;;;;;;;33.24;28.45;98251.25;5032305;28;20048;-50
2022/06/22 10:56:36;;;;;;;6.47;3.60;;;;;;;35.04;26.58;98241.00;5031323;28;20566;-52
2022/06/22 10:59:23;;;;;;;5.97;2.85;;;;;;;36.07;24.82;98253.94;5017701;28;20505;-46
2022/06/22 11:02:15;;;;;;;3.20;2.90;;;;;;;37.06;23.92;98256.44;5031215;28;20064;-52
2022/06/22 11:05:06;;;;;;;4.80;2.40;;;;;;;37.28;23.40;98249.84;5024047;28;20061;-50
2022/06/22 11:07:57;;;;;;;2.85;2.58;;;;;;;38.08;22.64;98258.81;5032012;28;20040;-48
2022/06/22 11:10:44;;;;;;;4.22;3.50;;;;;;;39.25;21.36;98263.50;5012282;28;20048;-50
2022/06/22 11:13:17;;;;;;;6.63;3.15;;;;;;;39.49;21.07;98263.75;5024179;28;20057;-49
2022/06/22 11:16:32;;;;;;;3.72;3.42;;;;;;;40.19;19.84;98265.53;5030005;28;20053;-50
2022/06/22 11:19:20;;;;;;;5.77;3.50;;;;;;;40.59;18.99;98266.41;5015175;28;20080;-49
2022/06/22 11:21:45;;;;;;;;;;;;;;;41.01;19.54;98264.00;5032484;28;20077;-47
2022/06/22 11:24:52;;;;;;;3.25;2.97;;;;;;;41.42;18.95;98266.41;5031390;28;19959;-49
2022/06/22 11:32:58;;;;;;;4.30;2.60;;;;;;;38.08;21.15;98269.69;5031646;28;20052;-48
2022/06/22 11:36:02;;;;;;;3.58;2.35;;;;;;;38.68;20.10;98266.38;5031580;28;20037;-48
2022/06/22 11:39:05;;;;;;;11.55;3.08;;;;;;;38.71;20.14;98275.91;5030771;28;20041;-46
2022/06/22 11:41:40;;;;;;;3.17;2.08;;;;;;;39.33;19.69;98270.28;5030400;28;20513;-46
2022/06/22 11:44:18;;;;;;;2.70;2.17;;;;;;;39.87;18.51;98272.44;5031527;28;20145;-48
2022/06/22 11:46:55;;;;;;;2.38;1.77;;;;;;;39.53;19.07;98275.72;5030757;28;20041;-47
2022/06/22 11:49:35;;;;;;;3.67;1.73;;;;;;;37.53;20.82;98270.13;5030541;28;20092;-47
2022/06/22 11:52:17;;;;;;;3.58;1.83;;;;;;;37.38;20.02;98270.81;5031535;28;20067;-49
2022/06/22 11:54:52;;;;;;;5.03;2.15;;;;;;;38.51;19.18;98266.63;5029712;28;20041;-47
2022/06/22 11:57:43;;;;;;;4.25;1.90;;;;;;;39.51;18.41;98268.94;5031342;28;20059;-51
2022/06/22 12:00:15;;;;;;;4.03;3.00;;;;;;;40.18;17.73;98269.31;5029928;28;20448;-47
2022/06/22 12:03:04;;;;;;;2.72;2.13;;;;;;;40.53;17.21;98268.38;5029561;28;20056;-46
2022/06/22 12:05:55;;;;;;;4.50;1.60;;;;;;;39.71;18.01;98266.19;5029869;28;20060;-49
2022/06/22 12:08:26;;;;;;;5.45;2.40;;;;;;;38.96;18.50;98265.09;5063160;28;20045;-47
2022/06/22 12:11:14;;;;;;;4.28;2.13;;;;;;;39.57;17.52;98267.84;5030894;28;20045;-46
2022/06/22 12:16:54;;;;;;;6.00;1.48;;;;;;;39.16;17.89;98258.84;5016005;28;20048;-50
2022/06/22 12:19:25;;;;;;;2.90;1.95;;;;;;;38.17;18.77;98260.75;5030784;28;20045;-47
2022/06/22 12:21:57;;;;;;;5.95;1.67;;;;;;;38.26;18.72;98257.53;5029677;28;20425;-45
2022/06/22 12:24:51;;;;;;;5.53;1.80;;;;;;;37.68;19.20;98260.22;5030647;28;20485;-47
2022/06/22 12:27:23;;;;;;;2.75;1.92;;;;;;;38.36;19.18;98254.88;5028560;28;20521;-45
2022/06/22 12:29:54;;;;;;;6.47;1.77;;;;;;;37.87;19.43;98262.47;5029471;28;20048;-47
2022/06/22 12:32:24;;;;;;;3.53;1.38;;;;;;;35.82;21.27;98254.44;5030413;28;20075;-46
2022/06/22 12:35:11;;;;;;;14.95;10.00;;;;;;;34.12;22.49;98248.41;5031024;28;20099;-47
2022/06/22 12:38:01;;;;;;;6.25;1.98;;;;;;;32.82;24.61;98247.75;5012451;28;20065;-47
2022/06/22 12:40:39;;;;;;;3.15;1.20;;;;;;;33.07;24.44;98261.84;5029765;28;20069;-47
2022/06/22 12:43:33;;;;;;;3.47;1.55;;;;;;;33.43;24.54;98256.31;5030366;28;20101;-46
2022/06/22 12:46:10;;;;;;;6.00;1.50;;;;;;;33.38;24.49;98244.59;5030474;28;20040;-46
2022/06/22 12:48:58;;;;;;;4.60;1.80;;;;;;;33.10;24.97;98239.84;5029152;28;20406;-45